﻿<?xml version="1.0" encoding="UTF-8" standalone="no" ?>
<gpx xmlns="http://www.topografix.com/GPX/1/1" creator="CompeGPS" version="1.1" xmlns:xsi="http://www.w3.org/2001/XMLSchema-instance" xsi:schemaLocation="http://www.topografix.com/GPX/1/1 http://www.topografix.com/GPX/1/1/gpx.xsd http://www.garmin.com/xmlschemas/GpxExtensions/v3 http://www.garmin.com/xmlschemas/GpxExtensionsv3.xsd http://www.garmin.com/xmlschemas/TrackPointExtension/v1 http://www.garmin.com/xmlschemas/TrackPointExtensionv1.xsd" xmlns:gpxtpx="http://www.garmin.com/xmlschemas/TrackPointExtension/v1">
  <metadata>
    <link href="http://www.compegps.com">
      <text>CompeGPS TEAM, SL</text>
    </link>
    <time>2013-03-28T21:03:14Z</time>
    <bounds maxlat="42.877095" maxlon="0.495483" minlat="42.858506" minlon="0.471911"/>
  </metadata>
<wpt lat="42.858845" lon="0.495483">
  <ele>1330</ele>
  <name>Bourg d_Oueil</name>
</wpt>
<wpt lat="42.868210" lon="0.471944">
  <ele>1855</ele>
  <name>Port de Pierrefite</name>
</wpt>
<wpt lat="42.877095" lon="0.476767">
  <ele>2147</ele>
  <name>Mont-Ne</name>
</wpt>
  <trk>
    <name>Mont-Ne</name>
    <trkseg>
      <trkpt lat="42.858845" lon="0.495483">
        <ele>1330.6</ele>
        <time>2013-03-22T08:16:05Z</time>
        <name>Bourg d_Oueil</name>
      </trkpt>
      <trkpt lat="42.858803" lon="0.495424">
        <ele>1330.6</ele>
        <time>2013-03-22T08:16:32Z</time>
      </trkpt>
      <trkpt lat="42.858760" lon="0.495393">
        <ele>1331.1</ele>
        <time>2013-03-22T08:16:45Z</time>
      </trkpt>
      <trkpt lat="42.858726" lon="0.495425">
        <ele>1332.5</ele>
        <time>2013-03-22T08:18:16Z</time>
      </trkpt>
      <trkpt lat="42.858714" lon="0.495293">
        <ele>1331.6</ele>
        <time>2013-03-22T08:19:31Z</time>
      </trkpt>
      <trkpt lat="42.858711" lon="0.495279">
        <ele>1332.0</ele>
        <time>2013-03-22T08:19:51Z</time>
      </trkpt>
      <trkpt lat="42.858694" lon="0.495220">
        <ele>1331.6</ele>
        <time>2013-03-22T08:21:14Z</time>
      </trkpt>
      <trkpt lat="42.858715" lon="0.495104">
        <ele>1331.6</ele>
        <time>2013-03-22T08:21:25Z</time>
      </trkpt>
      <trkpt lat="42.858746" lon="0.494974">
        <ele>1332.0</ele>
        <time>2013-03-22T08:21:36Z</time>
      </trkpt>
      <trkpt lat="42.858756" lon="0.494864">
        <ele>1332.0</ele>
        <time>2013-03-22T08:21:47Z</time>
      </trkpt>
      <trkpt lat="42.858760" lon="0.494724">
        <ele>1334.0</ele>
        <time>2013-03-22T08:22:00Z</time>
      </trkpt>
      <trkpt lat="42.858778" lon="0.494568">
        <ele>1335.9</ele>
        <time>2013-03-22T08:22:15Z</time>
      </trkpt>
      <trkpt lat="42.858772" lon="0.494440">
        <ele>1337.8</ele>
        <time>2013-03-22T08:22:29Z</time>
      </trkpt>
      <trkpt lat="42.858740" lon="0.494318">
        <ele>1340.2</ele>
        <time>2013-03-22T08:22:42Z</time>
      </trkpt>
      <trkpt lat="42.858712" lon="0.494216">
        <ele>1342.1</ele>
        <time>2013-03-22T08:22:55Z</time>
      </trkpt>
      <trkpt lat="42.858660" lon="0.494093">
        <ele>1344.1</ele>
        <time>2013-03-22T08:23:09Z</time>
      </trkpt>
      <trkpt lat="42.858615" lon="0.493952">
        <ele>1346.0</ele>
        <time>2013-03-22T08:23:22Z</time>
      </trkpt>
      <trkpt lat="42.858590" lon="0.493849">
        <ele>1348.4</ele>
        <time>2013-03-22T08:23:36Z</time>
      </trkpt>
      <trkpt lat="42.858553" lon="0.493742">
        <ele>1350.8</ele>
        <time>2013-03-22T08:23:48Z</time>
      </trkpt>
      <trkpt lat="42.858542" lon="0.493597">
        <ele>1351.3</ele>
        <time>2013-03-22T08:23:59Z</time>
      </trkpt>
      <trkpt lat="42.858537" lon="0.493453">
        <ele>1351.8</ele>
        <time>2013-03-22T08:24:12Z</time>
      </trkpt>
      <trkpt lat="42.858507" lon="0.493307">
        <ele>1353.2</ele>
        <time>2013-03-22T08:24:23Z</time>
      </trkpt>
      <trkpt lat="42.858511" lon="0.493148">
        <ele>1352.7</ele>
        <time>2013-03-22T08:24:34Z</time>
      </trkpt>
      <trkpt lat="42.858511" lon="0.493016">
        <ele>1354.2</ele>
        <time>2013-03-22T08:24:46Z</time>
      </trkpt>
      <trkpt lat="42.858516" lon="0.492888">
        <ele>1354.6</ele>
        <time>2013-03-22T08:24:58Z</time>
      </trkpt>
      <trkpt lat="42.858505" lon="0.492732">
        <ele>1355.6</ele>
        <time>2013-03-22T08:25:09Z</time>
      </trkpt>
      <trkpt lat="42.858525" lon="0.492590">
        <ele>1356.6</ele>
        <time>2013-03-22T08:25:24Z</time>
      </trkpt>
      <trkpt lat="42.858554" lon="0.492451">
        <ele>1356.6</ele>
        <time>2013-03-22T08:25:39Z</time>
      </trkpt>
      <trkpt lat="42.858646" lon="0.492383">
        <ele>1356.6</ele>
        <time>2013-03-22T08:25:51Z</time>
      </trkpt>
      <trkpt lat="42.858767" lon="0.492399">
        <ele>1355.6</ele>
        <time>2013-03-22T08:26:01Z</time>
      </trkpt>
      <trkpt lat="42.858875" lon="0.492335">
        <ele>1357.0</ele>
        <time>2013-03-22T08:26:13Z</time>
      </trkpt>
      <trkpt lat="42.858971" lon="0.492315">
        <ele>1359.9</ele>
        <time>2013-03-22T08:26:28Z</time>
      </trkpt>
      <trkpt lat="42.859057" lon="0.492283">
        <ele>1361.8</ele>
        <time>2013-03-22T08:26:42Z</time>
      </trkpt>
      <trkpt lat="42.859076" lon="0.492182">
        <ele>1364.7</ele>
        <time>2013-03-22T08:27:00Z</time>
      </trkpt>
      <trkpt lat="42.859172" lon="0.492149">
        <ele>1368.6</ele>
        <time>2013-03-22T08:27:29Z</time>
      </trkpt>
      <trkpt lat="42.859194" lon="0.492009">
        <ele>1370.5</ele>
        <time>2013-03-22T08:28:09Z</time>
      </trkpt>
      <trkpt lat="42.859233" lon="0.491875">
        <ele>1373.4</ele>
        <time>2013-03-22T08:28:25Z</time>
      </trkpt>
      <trkpt lat="42.859316" lon="0.491776">
        <ele>1375.8</ele>
        <time>2013-03-22T08:28:42Z</time>
      </trkpt>
      <trkpt lat="42.859413" lon="0.491696">
        <ele>1379.2</ele>
        <time>2013-03-22T08:29:00Z</time>
      </trkpt>
      <trkpt lat="42.859503" lon="0.491660">
        <ele>1380.1</ele>
        <time>2013-03-22T08:29:15Z</time>
      </trkpt>
      <trkpt lat="42.859603" lon="0.491628">
        <ele>1381.6</ele>
        <time>2013-03-22T08:29:30Z</time>
      </trkpt>
      <trkpt lat="42.859678" lon="0.491606">
        <ele>1382.5</ele>
        <time>2013-03-22T08:29:47Z</time>
      </trkpt>
      <trkpt lat="42.859759" lon="0.491562">
        <ele>1384.4</ele>
        <time>2013-03-22T08:30:07Z</time>
      </trkpt>
      <trkpt lat="42.859904" lon="0.491503">
        <ele>1387.8</ele>
        <time>2013-03-22T08:30:49Z</time>
      </trkpt>
      <trkpt lat="42.859926" lon="0.491407">
        <ele>1391.7</ele>
        <time>2013-03-22T08:31:09Z</time>
      </trkpt>
      <trkpt lat="42.859940" lon="0.491374">
        <ele>1396.0</ele>
        <time>2013-03-22T08:31:27Z</time>
      </trkpt>
      <trkpt lat="42.860018" lon="0.491271">
        <ele>1399.8</ele>
        <time>2013-03-22T08:32:01Z</time>
      </trkpt>
      <trkpt lat="42.860081" lon="0.491202">
        <ele>1404.1</ele>
        <time>2013-03-22T08:32:22Z</time>
      </trkpt>
      <trkpt lat="42.860126" lon="0.491125">
        <ele>1406.1</ele>
        <time>2013-03-22T08:33:15Z</time>
      </trkpt>
      <trkpt lat="42.860241" lon="0.491127">
        <ele>1408.9</ele>
        <time>2013-03-22T08:33:35Z</time>
      </trkpt>
      <trkpt lat="42.860388" lon="0.491059">
        <ele>1410.9</ele>
        <time>2013-03-22T08:34:05Z</time>
      </trkpt>
      <trkpt lat="42.860528" lon="0.491012">
        <ele>1413.3</ele>
        <time>2013-03-22T08:34:24Z</time>
      </trkpt>
      <trkpt lat="42.860654" lon="0.490915">
        <ele>1416.2</ele>
        <time>2013-03-22T08:34:41Z</time>
      </trkpt>
      <trkpt lat="42.860812" lon="0.490869">
        <ele>1416.6</ele>
        <time>2013-03-22T09:20:53Z</time>
      </trkpt>
      <trkpt lat="42.860879" lon="0.490779">
        <ele>1418.6</ele>
        <time>2013-03-22T09:21:02Z</time>
      </trkpt>
      <trkpt lat="42.860886" lon="0.490634">
        <ele>1423.4</ele>
        <time>2013-03-22T09:21:15Z</time>
      </trkpt>
      <trkpt lat="42.860864" lon="0.490470">
        <ele>1428.2</ele>
        <time>2013-03-22T09:21:31Z</time>
      </trkpt>
      <trkpt lat="42.860914" lon="0.490273">
        <ele>1431.1</ele>
        <time>2013-03-22T09:21:46Z</time>
      </trkpt>
      <trkpt lat="42.860975" lon="0.490124">
        <ele>1435.4</ele>
        <time>2013-03-22T09:22:02Z</time>
      </trkpt>
      <trkpt lat="42.861041" lon="0.489981">
        <ele>1437.8</ele>
        <time>2013-03-22T09:22:16Z</time>
      </trkpt>
      <trkpt lat="42.861111" lon="0.489856">
        <ele>1439.7</ele>
        <time>2013-03-22T09:22:30Z</time>
      </trkpt>
      <trkpt lat="42.861154" lon="0.489689">
        <ele>1443.6</ele>
        <time>2013-03-22T09:22:47Z</time>
      </trkpt>
      <trkpt lat="42.861177" lon="0.489540">
        <ele>1446.0</ele>
        <time>2013-03-22T09:23:02Z</time>
      </trkpt>
      <trkpt lat="42.861189" lon="0.489407">
        <ele>1449.8</ele>
        <time>2013-03-22T09:23:16Z</time>
      </trkpt>
      <trkpt lat="42.861201" lon="0.489267">
        <ele>1452.2</ele>
        <time>2013-03-22T09:23:29Z</time>
      </trkpt>
      <trkpt lat="42.861226" lon="0.489159">
        <ele>1454.1</ele>
        <time>2013-03-22T09:23:40Z</time>
      </trkpt>
      <trkpt lat="42.861183" lon="0.489052">
        <ele>1457.0</ele>
        <time>2013-03-22T09:23:52Z</time>
      </trkpt>
      <trkpt lat="42.861226" lon="0.488912">
        <ele>1460.9</ele>
        <time>2013-03-22T09:24:09Z</time>
      </trkpt>
      <trkpt lat="42.861198" lon="0.488817">
        <ele>1463.7</ele>
        <time>2013-03-22T09:24:22Z</time>
      </trkpt>
      <trkpt lat="42.861240" lon="0.488682">
        <ele>1466.6</ele>
        <time>2013-03-22T09:24:37Z</time>
      </trkpt>
      <trkpt lat="42.861224" lon="0.488535">
        <ele>1470.9</ele>
        <time>2013-03-22T09:24:55Z</time>
      </trkpt>
      <trkpt lat="42.861206" lon="0.488390">
        <ele>1474.3</ele>
        <time>2013-03-22T09:25:11Z</time>
      </trkpt>
      <trkpt lat="42.861245" lon="0.488276">
        <ele>1477.7</ele>
        <time>2013-03-22T09:25:25Z</time>
      </trkpt>
      <trkpt lat="42.861319" lon="0.488085">
        <ele>1483.0</ele>
        <time>2013-03-22T09:28:33Z</time>
      </trkpt>
      <trkpt lat="42.861355" lon="0.487952">
        <ele>1486.8</ele>
        <time>2013-03-22T09:28:49Z</time>
      </trkpt>
      <trkpt lat="42.861338" lon="0.487810">
        <ele>1489.2</ele>
        <time>2013-03-22T09:29:03Z</time>
      </trkpt>
      <trkpt lat="42.861336" lon="0.487659">
        <ele>1492.6</ele>
        <time>2013-03-22T09:29:19Z</time>
      </trkpt>
      <trkpt lat="42.861315" lon="0.487505">
        <ele>1495.5</ele>
        <time>2013-03-22T09:29:35Z</time>
      </trkpt>
      <trkpt lat="42.861335" lon="0.487329">
        <ele>1498.8</ele>
        <time>2013-03-22T09:29:52Z</time>
      </trkpt>
      <trkpt lat="42.861350" lon="0.487181">
        <ele>1501.7</ele>
        <time>2013-03-22T09:30:09Z</time>
      </trkpt>
      <trkpt lat="42.861389" lon="0.487034">
        <ele>1505.6</ele>
        <time>2013-03-22T09:30:25Z</time>
      </trkpt>
      <trkpt lat="42.861418" lon="0.486897">
        <ele>1508.9</ele>
        <time>2013-03-22T09:30:39Z</time>
      </trkpt>
      <trkpt lat="42.861584" lon="0.486740">
        <ele>1495.5</ele>
        <time>2013-03-22T09:30:54Z</time>
      </trkpt>
      <trkpt lat="42.861698" lon="0.486563">
        <ele>1499.5</ele>
        <time>2013-03-22T09:31:10Z</time>
      </trkpt>
      <trkpt lat="42.861812" lon="0.486418">
        <ele>1505.0</ele>
        <time>2013-03-22T09:31:26Z</time>
      </trkpt>
      <trkpt lat="42.861884" lon="0.486220">
        <ele>1527.7</ele>
        <time>2013-03-22T09:32:16Z</time>
      </trkpt>
      <trkpt lat="42.861980" lon="0.486086">
        <ele>1516.8</ele>
        <time>2013-03-22T09:32:46Z</time>
      </trkpt>
      <trkpt lat="42.862118" lon="0.485952">
        <ele>1536.8</ele>
        <time>2013-03-22T09:33:01Z</time>
      </trkpt>
      <trkpt lat="42.862114" lon="0.485841">
        <ele>1539.2</ele>
        <time>2013-03-22T09:33:15Z</time>
      </trkpt>
      <trkpt lat="42.862175" lon="0.485734">
        <ele>1542.6</ele>
        <time>2013-03-22T09:33:31Z</time>
      </trkpt>
      <trkpt lat="42.862245" lon="0.485629">
        <ele>1545.0</ele>
        <time>2013-03-22T09:33:47Z</time>
      </trkpt>
      <trkpt lat="42.862419" lon="0.485511">
        <ele>1547.4</ele>
        <time>2013-03-22T09:34:00Z</time>
      </trkpt>
      <trkpt lat="42.862451" lon="0.485373">
        <ele>1550.7</ele>
        <time>2013-03-22T09:34:14Z</time>
      </trkpt>
      <trkpt lat="42.862471" lon="0.485228">
        <ele>1552.7</ele>
        <time>2013-03-22T09:34:29Z</time>
      </trkpt>
      <trkpt lat="42.862514" lon="0.485137">
        <ele>1555.1</ele>
        <time>2013-03-22T09:34:41Z</time>
      </trkpt>
      <trkpt lat="42.862591" lon="0.485035">
        <ele>1557.9</ele>
        <time>2013-03-22T09:34:55Z</time>
      </trkpt>
      <trkpt lat="42.862639" lon="0.484933">
        <ele>1560.8</ele>
        <time>2013-03-22T09:35:14Z</time>
      </trkpt>
      <trkpt lat="42.862680" lon="0.484796">
        <ele>1564.2</ele>
        <time>2013-03-22T09:35:33Z</time>
      </trkpt>
      <trkpt lat="42.862780" lon="0.484740">
        <ele>1567.1</ele>
        <time>2013-03-22T09:36:13Z</time>
      </trkpt>
      <trkpt lat="42.862877" lon="0.484635">
        <ele>1570.4</ele>
        <time>2013-03-22T09:36:28Z</time>
      </trkpt>
      <trkpt lat="42.862945" lon="0.484531">
        <ele>1573.3</ele>
        <time>2013-03-22T09:36:41Z</time>
      </trkpt>
      <trkpt lat="42.862977" lon="0.484398">
        <ele>1576.7</ele>
        <time>2013-03-22T09:36:54Z</time>
      </trkpt>
      <trkpt lat="42.863012" lon="0.484276">
        <ele>1580.1</ele>
        <time>2013-03-22T09:37:09Z</time>
      </trkpt>
      <trkpt lat="42.863068" lon="0.484167">
        <ele>1582.9</ele>
        <time>2013-03-22T09:37:24Z</time>
      </trkpt>
      <trkpt lat="42.863091" lon="0.484054">
        <ele>1587.3</ele>
        <time>2013-03-22T09:37:43Z</time>
      </trkpt>
      <trkpt lat="42.863154" lon="0.483925">
        <ele>1590.6</ele>
        <time>2013-03-22T09:38:01Z</time>
      </trkpt>
      <trkpt lat="42.863200" lon="0.483824">
        <ele>1593.5</ele>
        <time>2013-03-22T09:38:16Z</time>
      </trkpt>
      <trkpt lat="42.863239" lon="0.483807">
        <ele>1595.0</ele>
        <time>2013-03-22T09:38:41Z</time>
      </trkpt>
      <trkpt lat="42.863290" lon="0.483793">
        <ele>1597.4</ele>
        <time>2013-03-22T09:41:05Z</time>
      </trkpt>
      <trkpt lat="42.863332" lon="0.483666">
        <ele>1601.7</ele>
        <time>2013-03-22T09:41:20Z</time>
      </trkpt>
      <trkpt lat="42.863386" lon="0.483570">
        <ele>1604.6</ele>
        <time>2013-03-22T09:41:33Z</time>
      </trkpt>
      <trkpt lat="42.863457" lon="0.483464">
        <ele>1607.0</ele>
        <time>2013-03-22T09:41:47Z</time>
      </trkpt>
      <trkpt lat="42.863522" lon="0.483368">
        <ele>1610.3</ele>
        <time>2013-03-22T09:42:01Z</time>
      </trkpt>
      <trkpt lat="42.863564" lon="0.483243">
        <ele>1614.2</ele>
        <time>2013-03-22T09:42:16Z</time>
      </trkpt>
      <trkpt lat="42.863594" lon="0.483116">
        <ele>1616.6</ele>
        <time>2013-03-22T09:42:33Z</time>
      </trkpt>
      <trkpt lat="42.863609" lon="0.483009">
        <ele>1620.0</ele>
        <time>2013-03-22T09:42:50Z</time>
      </trkpt>
      <trkpt lat="42.863639" lon="0.482865">
        <ele>1622.4</ele>
        <time>2013-03-22T09:43:05Z</time>
      </trkpt>
      <trkpt lat="42.863630" lon="0.482755">
        <ele>1624.3</ele>
        <time>2013-03-22T09:43:20Z</time>
      </trkpt>
      <trkpt lat="42.863595" lon="0.482653">
        <ele>1626.7</ele>
        <time>2013-03-22T09:43:33Z</time>
      </trkpt>
      <trkpt lat="42.863550" lon="0.482519">
        <ele>1629.6</ele>
        <time>2013-03-22T09:43:47Z</time>
      </trkpt>
      <trkpt lat="42.863519" lon="0.482409">
        <ele>1632.0</ele>
        <time>2013-03-22T09:43:57Z</time>
      </trkpt>
      <trkpt lat="42.863513" lon="0.482279">
        <ele>1632.5</ele>
        <time>2013-03-22T09:44:09Z</time>
      </trkpt>
      <trkpt lat="42.863527" lon="0.482129">
        <ele>1631.5</ele>
        <time>2013-03-22T09:44:18Z</time>
      </trkpt>
      <trkpt lat="42.863529" lon="0.481989">
        <ele>1630.5</ele>
        <time>2013-03-22T09:44:26Z</time>
      </trkpt>
      <trkpt lat="42.863540" lon="0.481819">
        <ele>1630.5</ele>
        <time>2013-03-22T09:44:38Z</time>
      </trkpt>
      <trkpt lat="42.863537" lon="0.481669">
        <ele>1632.9</ele>
        <time>2013-03-22T09:44:50Z</time>
      </trkpt>
      <trkpt lat="42.863516" lon="0.481534">
        <ele>1634.4</ele>
        <time>2013-03-22T09:45:02Z</time>
      </trkpt>
      <trkpt lat="42.863488" lon="0.481422">
        <ele>1636.3</ele>
        <time>2013-03-22T09:45:18Z</time>
      </trkpt>
      <trkpt lat="42.863482" lon="0.481268">
        <ele>1637.7</ele>
        <time>2013-03-22T09:45:29Z</time>
      </trkpt>
      <trkpt lat="42.863461" lon="0.481164">
        <ele>1639.2</ele>
        <time>2013-03-22T09:45:42Z</time>
      </trkpt>
      <trkpt lat="42.863465" lon="0.481036">
        <ele>1642.1</ele>
        <time>2013-03-22T09:45:57Z</time>
      </trkpt>
      <trkpt lat="42.863533" lon="0.480866">
        <ele>1644.0</ele>
        <time>2013-03-22T09:46:18Z</time>
      </trkpt>
      <trkpt lat="42.863464" lon="0.480760">
        <ele>1647.8</ele>
        <time>2013-03-22T09:46:39Z</time>
      </trkpt>
      <trkpt lat="42.863460" lon="0.480610">
        <ele>1651.7</ele>
        <time>2013-03-22T09:46:58Z</time>
      </trkpt>
      <trkpt lat="42.863467" lon="0.480476">
        <ele>1655.5</ele>
        <time>2013-03-22T09:47:15Z</time>
      </trkpt>
      <trkpt lat="42.863566" lon="0.480383">
        <ele>1657.9</ele>
        <time>2013-03-22T09:47:36Z</time>
      </trkpt>
      <trkpt lat="42.863746" lon="0.480322">
        <ele>1657.0</ele>
        <time>2013-03-22T09:47:49Z</time>
      </trkpt>
      <trkpt lat="42.863820" lon="0.480234">
        <ele>1659.4</ele>
        <time>2013-03-22T09:48:07Z</time>
      </trkpt>
      <trkpt lat="42.863879" lon="0.480134">
        <ele>1662.3</ele>
        <time>2013-03-22T09:48:26Z</time>
      </trkpt>
      <trkpt lat="42.863885" lon="0.480013">
        <ele>1664.7</ele>
        <time>2013-03-22T09:48:42Z</time>
      </trkpt>
      <trkpt lat="42.863914" lon="0.479862">
        <ele>1669.5</ele>
        <time>2013-03-22T09:49:00Z</time>
      </trkpt>
      <trkpt lat="42.863936" lon="0.479709">
        <ele>1671.4</ele>
        <time>2013-03-22T09:49:13Z</time>
      </trkpt>
      <trkpt lat="42.864013" lon="0.479578">
        <ele>1673.8</ele>
        <time>2013-03-22T09:49:27Z</time>
      </trkpt>
      <trkpt lat="42.864080" lon="0.479488">
        <ele>1677.2</ele>
        <time>2013-03-22T09:49:43Z</time>
      </trkpt>
      <trkpt lat="42.864115" lon="0.479320">
        <ele>1680.0</ele>
        <time>2013-03-22T09:49:58Z</time>
      </trkpt>
      <trkpt lat="42.864150" lon="0.479223">
        <ele>1683.4</ele>
        <time>2013-03-22T09:50:15Z</time>
      </trkpt>
      <trkpt lat="42.864194" lon="0.479110">
        <ele>1686.3</ele>
        <time>2013-03-22T09:50:30Z</time>
      </trkpt>
      <trkpt lat="42.864161" lon="0.479026">
        <ele>1688.2</ele>
        <time>2013-03-22T09:51:25Z</time>
      </trkpt>
      <trkpt lat="42.864158" lon="0.478859">
        <ele>1690.6</ele>
        <time>2013-03-22T09:51:37Z</time>
      </trkpt>
      <trkpt lat="42.864149" lon="0.478699">
        <ele>1691.1</ele>
        <time>2013-03-22T09:51:50Z</time>
      </trkpt>
      <trkpt lat="42.864126" lon="0.478575">
        <ele>1692.5</ele>
        <time>2013-03-22T09:52:04Z</time>
      </trkpt>
      <trkpt lat="42.864107" lon="0.478426">
        <ele>1693.5</ele>
        <time>2013-03-22T09:52:16Z</time>
      </trkpt>
      <trkpt lat="42.864140" lon="0.478278">
        <ele>1694.5</ele>
        <time>2013-03-22T09:52:28Z</time>
      </trkpt>
      <trkpt lat="42.864227" lon="0.478151">
        <ele>1695.9</ele>
        <time>2013-03-22T09:52:43Z</time>
      </trkpt>
      <trkpt lat="42.864227" lon="0.477958">
        <ele>1696.9</ele>
        <time>2013-03-22T09:52:55Z</time>
      </trkpt>
      <trkpt lat="42.864276" lon="0.477828">
        <ele>1698.3</ele>
        <time>2013-03-22T09:53:08Z</time>
      </trkpt>
      <trkpt lat="42.864347" lon="0.477773">
        <ele>1700.2</ele>
        <time>2013-03-22T09:53:20Z</time>
      </trkpt>
      <trkpt lat="42.864442" lon="0.477731">
        <ele>1701.7</ele>
        <time>2013-03-22T09:53:35Z</time>
      </trkpt>
      <trkpt lat="42.864533" lon="0.477677">
        <ele>1701.7</ele>
        <time>2013-03-22T09:53:47Z</time>
      </trkpt>
      <trkpt lat="42.864571" lon="0.477562">
        <ele>1705.5</ele>
        <time>2013-03-22T09:54:05Z</time>
      </trkpt>
      <trkpt lat="42.864669" lon="0.477491">
        <ele>1705.5</ele>
        <time>2013-03-22T09:54:21Z</time>
      </trkpt>
      <trkpt lat="42.864738" lon="0.477400">
        <ele>1707.0</ele>
        <time>2013-03-22T09:54:42Z</time>
      </trkpt>
      <trkpt lat="42.864814" lon="0.477289">
        <ele>1709.4</ele>
        <time>2013-03-22T09:54:59Z</time>
      </trkpt>
      <trkpt lat="42.864855" lon="0.477168">
        <ele>1711.8</ele>
        <time>2013-03-22T09:55:18Z</time>
      </trkpt>
      <trkpt lat="42.864928" lon="0.477090">
        <ele>1715.1</ele>
        <time>2013-03-22T09:55:37Z</time>
      </trkpt>
      <trkpt lat="42.864995" lon="0.476987">
        <ele>1717.5</ele>
        <time>2013-03-22T09:55:54Z</time>
      </trkpt>
      <trkpt lat="42.865068" lon="0.476918">
        <ele>1719.9</ele>
        <time>2013-03-22T09:56:11Z</time>
      </trkpt>
      <trkpt lat="42.865129" lon="0.476824">
        <ele>1722.3</ele>
        <time>2013-03-22T09:56:28Z</time>
      </trkpt>
      <trkpt lat="42.865211" lon="0.476772">
        <ele>1724.3</ele>
        <time>2013-03-22T09:56:51Z</time>
      </trkpt>
      <trkpt lat="42.865290" lon="0.476711">
        <ele>1727.2</ele>
        <time>2013-03-22T09:57:25Z</time>
      </trkpt>
      <trkpt lat="42.865333" lon="0.476659">
        <ele>1730.0</ele>
        <time>2013-03-22T09:57:43Z</time>
      </trkpt>
      <trkpt lat="42.865384" lon="0.476584">
        <ele>1732.9</ele>
        <time>2013-03-22T09:57:58Z</time>
      </trkpt>
      <trkpt lat="42.865447" lon="0.476494">
        <ele>1735.3</ele>
        <time>2013-03-22T09:58:13Z</time>
      </trkpt>
      <trkpt lat="42.865553" lon="0.476456">
        <ele>1737.2</ele>
        <time>2013-03-22T09:58:30Z</time>
      </trkpt>
      <trkpt lat="42.865643" lon="0.476418">
        <ele>1739.2</ele>
        <time>2013-03-22T09:58:45Z</time>
      </trkpt>
      <trkpt lat="42.865651" lon="0.476324">
        <ele>1744.0</ele>
        <time>2013-03-22T09:59:08Z</time>
      </trkpt>
      <trkpt lat="42.865701" lon="0.476217">
        <ele>1748.8</ele>
        <time>2013-03-22T09:59:24Z</time>
      </trkpt>
      <trkpt lat="42.865755" lon="0.476151">
        <ele>1751.7</ele>
        <time>2013-03-22T09:59:39Z</time>
      </trkpt>
      <trkpt lat="42.865808" lon="0.476061">
        <ele>1753.6</ele>
        <time>2013-03-22T09:59:53Z</time>
      </trkpt>
      <trkpt lat="42.865857" lon="0.475991">
        <ele>1756.9</ele>
        <time>2013-03-22T10:00:08Z</time>
      </trkpt>
      <trkpt lat="42.865920" lon="0.475945">
        <ele>1761.3</ele>
        <time>2013-03-22T10:00:22Z</time>
      </trkpt>
      <trkpt lat="42.865929" lon="0.475741">
        <ele>1758.9</ele>
        <time>2013-03-22T10:00:52Z</time>
      </trkpt>
      <trkpt lat="42.865954" lon="0.475656">
        <ele>1760.8</ele>
        <time>2013-03-22T10:01:06Z</time>
      </trkpt>
      <trkpt lat="42.866010" lon="0.475574">
        <ele>1762.2</ele>
        <time>2013-03-22T10:01:19Z</time>
      </trkpt>
      <trkpt lat="42.866045" lon="0.475478">
        <ele>1765.1</ele>
        <time>2013-03-22T10:01:34Z</time>
      </trkpt>
      <trkpt lat="42.866052" lon="0.475395">
        <ele>1767.0</ele>
        <time>2013-03-22T10:02:59Z</time>
      </trkpt>
      <trkpt lat="42.866095" lon="0.475290">
        <ele>1769.4</ele>
        <time>2013-03-22T10:03:08Z</time>
      </trkpt>
      <trkpt lat="42.866135" lon="0.475178">
        <ele>1769.9</ele>
        <time>2013-03-22T10:03:17Z</time>
      </trkpt>
      <trkpt lat="42.866171" lon="0.475069">
        <ele>1771.8</ele>
        <time>2013-03-22T10:03:26Z</time>
      </trkpt>
      <trkpt lat="42.866191" lon="0.474932">
        <ele>1773.3</ele>
        <time>2013-03-22T10:03:36Z</time>
      </trkpt>
      <trkpt lat="42.866222" lon="0.474796">
        <ele>1775.2</ele>
        <time>2013-03-22T10:03:48Z</time>
      </trkpt>
      <trkpt lat="42.866280" lon="0.474706">
        <ele>1776.7</ele>
        <time>2013-03-22T10:03:59Z</time>
      </trkpt>
      <trkpt lat="42.866329" lon="0.474594">
        <ele>1778.6</ele>
        <time>2013-03-22T10:04:12Z</time>
      </trkpt>
      <trkpt lat="42.866382" lon="0.474492">
        <ele>1780.5</ele>
        <time>2013-03-22T10:04:24Z</time>
      </trkpt>
      <trkpt lat="42.866457" lon="0.474390">
        <ele>1781.5</ele>
        <time>2013-03-22T10:04:37Z</time>
      </trkpt>
      <trkpt lat="42.866549" lon="0.474327">
        <ele>1782.4</ele>
        <time>2013-03-22T10:04:48Z</time>
      </trkpt>
      <trkpt lat="42.866597" lon="0.474245">
        <ele>1783.4</ele>
        <time>2013-03-22T10:05:04Z</time>
      </trkpt>
      <trkpt lat="42.866702" lon="0.474228">
        <ele>1786.8</ele>
        <time>2013-03-22T10:05:21Z</time>
      </trkpt>
      <trkpt lat="42.866768" lon="0.474166">
        <ele>1788.7</ele>
        <time>2013-03-22T10:05:35Z</time>
      </trkpt>
      <trkpt lat="42.866832" lon="0.474050">
        <ele>1789.6</ele>
        <time>2013-03-22T10:05:49Z</time>
      </trkpt>
      <trkpt lat="42.866905" lon="0.473972">
        <ele>1791.6</ele>
        <time>2013-03-22T10:06:02Z</time>
      </trkpt>
      <trkpt lat="42.866989" lon="0.473904">
        <ele>1793.0</ele>
        <time>2013-03-22T10:06:15Z</time>
      </trkpt>
      <trkpt lat="42.867058" lon="0.473815">
        <ele>1794.4</ele>
        <time>2013-03-22T10:06:26Z</time>
      </trkpt>
      <trkpt lat="42.867138" lon="0.473740">
        <ele>1795.4</ele>
        <time>2013-03-22T10:06:37Z</time>
      </trkpt>
      <trkpt lat="42.867186" lon="0.473614">
        <ele>1797.3</ele>
        <time>2013-03-22T10:06:50Z</time>
      </trkpt>
      <trkpt lat="42.867261" lon="0.473510">
        <ele>1799.2</ele>
        <time>2013-03-22T10:07:05Z</time>
      </trkpt>
      <trkpt lat="42.867336" lon="0.473454">
        <ele>1800.7</ele>
        <time>2013-03-22T10:07:19Z</time>
      </trkpt>
      <trkpt lat="42.867440" lon="0.473451">
        <ele>1803.1</ele>
        <time>2013-03-22T10:07:33Z</time>
      </trkpt>
      <trkpt lat="42.867539" lon="0.473458">
        <ele>1805.0</ele>
        <time>2013-03-22T10:07:56Z</time>
      </trkpt>
      <trkpt lat="42.867633" lon="0.473389">
        <ele>1806.0</ele>
        <time>2013-03-22T10:08:15Z</time>
      </trkpt>
      <trkpt lat="42.867746" lon="0.473323">
        <ele>1807.9</ele>
        <time>2013-03-22T10:08:31Z</time>
      </trkpt>
      <trkpt lat="42.867781" lon="0.473248">
        <ele>1809.3</ele>
        <time>2013-03-22T10:08:46Z</time>
      </trkpt>
      <trkpt lat="42.867813" lon="0.473164">
        <ele>1813.7</ele>
        <time>2013-03-22T10:09:03Z</time>
      </trkpt>
      <trkpt lat="42.867900" lon="0.473085">
        <ele>1817.5</ele>
        <time>2013-03-22T10:09:19Z</time>
      </trkpt>
      <trkpt lat="42.867983" lon="0.473020">
        <ele>1820.9</ele>
        <time>2013-03-22T10:09:35Z</time>
      </trkpt>
      <trkpt lat="42.868034" lon="0.472936">
        <ele>1822.3</ele>
        <time>2013-03-22T10:09:51Z</time>
      </trkpt>
      <trkpt lat="42.868114" lon="0.472872">
        <ele>1825.7</ele>
        <time>2013-03-22T10:10:08Z</time>
      </trkpt>
      <trkpt lat="42.868109" lon="0.472780">
        <ele>1829.1</ele>
        <time>2013-03-22T10:10:27Z</time>
      </trkpt>
      <trkpt lat="42.868150" lon="0.472684">
        <ele>1832.4</ele>
        <time>2013-03-22T10:10:49Z</time>
      </trkpt>
      <trkpt lat="42.868174" lon="0.472585">
        <ele>1835.3</ele>
        <time>2013-03-22T10:11:06Z</time>
      </trkpt>
      <trkpt lat="42.868219" lon="0.472479">
        <ele>1839.1</ele>
        <time>2013-03-22T10:11:27Z</time>
      </trkpt>
      <trkpt lat="42.868225" lon="0.472403">
        <ele>1843.5</ele>
        <time>2013-03-22T10:11:51Z</time>
      </trkpt>
      <trkpt lat="42.868193" lon="0.472305">
        <ele>1849.2</ele>
        <time>2013-03-22T10:12:26Z</time>
      </trkpt>
      <trkpt lat="42.868171" lon="0.472185">
        <ele>1853.6</ele>
        <time>2013-03-22T10:12:46Z</time>
      </trkpt>
      <trkpt lat="42.868195" lon="0.472067">
        <ele>1855.5</ele>
        <time>2013-03-22T10:13:10Z</time>
      </trkpt>
      <trkpt lat="42.868210" lon="0.471944">
        <ele>1857.4</ele>
        <time>2013-03-22T10:13:25Z</time>
        <name>Port de Pierrefite</name>
      </trkpt>
      <trkpt lat="42.868253" lon="0.471987">
        <ele>1857.4</ele>
        <time>2013-03-22T10:16:54Z</time>
      </trkpt>
      <trkpt lat="42.868347" lon="0.471968">
        <ele>1857.4</ele>
        <time>2013-03-22T10:17:11Z</time>
      </trkpt>
      <trkpt lat="42.868438" lon="0.471939">
        <ele>1862.2</ele>
        <time>2013-03-22T10:17:39Z</time>
      </trkpt>
      <trkpt lat="42.868460" lon="0.471949">
        <ele>1861.2</ele>
        <time>2013-03-22T10:18:19Z</time>
      </trkpt>
      <trkpt lat="42.868455" lon="0.471985">
        <ele>1861.7</ele>
        <time>2013-03-22T10:19:42Z</time>
      </trkpt>
      <trkpt lat="42.868552" lon="0.471959">
        <ele>1862.7</ele>
        <time>2013-03-22T10:19:53Z</time>
      </trkpt>
      <trkpt lat="42.868655" lon="0.471954">
        <ele>1864.6</ele>
        <time>2013-03-22T10:20:05Z</time>
      </trkpt>
      <trkpt lat="42.868751" lon="0.471952">
        <ele>1866.1</ele>
        <time>2013-03-22T10:20:20Z</time>
      </trkpt>
      <trkpt lat="42.868858" lon="0.471953">
        <ele>1868.5</ele>
        <time>2013-03-22T10:20:43Z</time>
      </trkpt>
      <trkpt lat="42.868940" lon="0.471959">
        <ele>1870.4</ele>
        <time>2013-03-22T10:21:07Z</time>
      </trkpt>
      <trkpt lat="42.869035" lon="0.471971">
        <ele>1872.3</ele>
        <time>2013-03-22T10:21:22Z</time>
      </trkpt>
      <trkpt lat="42.869126" lon="0.471949">
        <ele>1874.2</ele>
        <time>2013-03-22T10:21:37Z</time>
      </trkpt>
      <trkpt lat="42.869213" lon="0.471941">
        <ele>1876.2</ele>
        <time>2013-03-22T10:21:51Z</time>
      </trkpt>
      <trkpt lat="42.869311" lon="0.471932">
        <ele>1878.6</ele>
        <time>2013-03-22T10:22:08Z</time>
      </trkpt>
      <trkpt lat="42.869392" lon="0.471938">
        <ele>1881.0</ele>
        <time>2013-03-22T10:22:35Z</time>
      </trkpt>
      <trkpt lat="42.869526" lon="0.471911">
        <ele>1883.8</ele>
        <time>2013-03-22T10:23:13Z</time>
      </trkpt>
      <trkpt lat="42.869608" lon="0.471925">
        <ele>1886.7</ele>
        <time>2013-03-22T10:23:28Z</time>
      </trkpt>
      <trkpt lat="42.869689" lon="0.471927">
        <ele>1888.7</ele>
        <time>2013-03-22T10:23:44Z</time>
      </trkpt>
      <trkpt lat="42.869771" lon="0.471940">
        <ele>1893.4</ele>
        <time>2013-03-22T10:24:04Z</time>
      </trkpt>
      <trkpt lat="42.869865" lon="0.471959">
        <ele>1896.3</ele>
        <time>2013-03-22T10:24:25Z</time>
      </trkpt>
      <trkpt lat="42.869954" lon="0.471973">
        <ele>1900.7</ele>
        <time>2013-03-22T10:24:48Z</time>
      </trkpt>
      <trkpt lat="42.870031" lon="0.471969">
        <ele>1903.1</ele>
        <time>2013-03-22T10:25:07Z</time>
      </trkpt>
      <trkpt lat="42.870121" lon="0.471957">
        <ele>1905.9</ele>
        <time>2013-03-22T10:25:25Z</time>
      </trkpt>
      <trkpt lat="42.870193" lon="0.471954">
        <ele>1908.3</ele>
        <time>2013-03-22T10:25:44Z</time>
      </trkpt>
      <trkpt lat="42.870279" lon="0.471973">
        <ele>1911.7</ele>
        <time>2013-03-22T10:26:15Z</time>
      </trkpt>
      <trkpt lat="42.870368" lon="0.471989">
        <ele>1915.1</ele>
        <time>2013-03-22T10:26:36Z</time>
      </trkpt>
      <trkpt lat="42.870462" lon="0.472029">
        <ele>1918.4</ele>
        <time>2013-03-22T10:27:01Z</time>
      </trkpt>
      <trkpt lat="42.870568" lon="0.472079">
        <ele>1922.8</ele>
        <time>2013-03-22T10:27:28Z</time>
      </trkpt>
      <trkpt lat="42.870639" lon="0.472142">
        <ele>1925.7</ele>
        <time>2013-03-22T10:28:38Z</time>
      </trkpt>
      <trkpt lat="42.870701" lon="0.472210">
        <ele>1928.5</ele>
        <time>2013-03-22T10:29:24Z</time>
      </trkpt>
      <trkpt lat="42.870802" lon="0.472290">
        <ele>1932.9</ele>
        <time>2013-03-22T10:29:48Z</time>
      </trkpt>
      <trkpt lat="42.870859" lon="0.472375">
        <ele>1937.2</ele>
        <time>2013-03-22T10:30:10Z</time>
      </trkpt>
      <trkpt lat="42.870925" lon="0.472450">
        <ele>1940.1</ele>
        <time>2013-03-22T10:30:47Z</time>
      </trkpt>
      <trkpt lat="42.870987" lon="0.472541">
        <ele>1943.9</ele>
        <time>2013-03-22T10:31:20Z</time>
      </trkpt>
      <trkpt lat="42.871052" lon="0.472609">
        <ele>1948.2</ele>
        <time>2013-03-22T10:31:45Z</time>
      </trkpt>
      <trkpt lat="42.871125" lon="0.472693">
        <ele>1952.1</ele>
        <time>2013-03-22T10:32:11Z</time>
      </trkpt>
      <trkpt lat="42.871202" lon="0.472783">
        <ele>1956.4</ele>
        <time>2013-03-22T10:32:40Z</time>
      </trkpt>
      <trkpt lat="42.871276" lon="0.472852">
        <ele>1959.8</ele>
        <time>2013-03-22T10:33:06Z</time>
      </trkpt>
      <trkpt lat="42.871348" lon="0.472932">
        <ele>1963.6</ele>
        <time>2013-03-22T10:33:32Z</time>
      </trkpt>
      <trkpt lat="42.871370" lon="0.472953">
        <ele>1964.6</ele>
        <time>2013-03-22T10:34:27Z</time>
      </trkpt>
      <trkpt lat="42.871449" lon="0.473031">
        <ele>1967.5</ele>
        <time>2013-03-22T10:36:04Z</time>
      </trkpt>
      <trkpt lat="42.871530" lon="0.473097">
        <ele>1969.4</ele>
        <time>2013-03-22T10:36:18Z</time>
      </trkpt>
      <trkpt lat="42.871605" lon="0.473158">
        <ele>1971.8</ele>
        <time>2013-03-22T10:36:34Z</time>
      </trkpt>
      <trkpt lat="42.871685" lon="0.473233">
        <ele>1974.2</ele>
        <time>2013-03-22T10:36:51Z</time>
      </trkpt>
      <trkpt lat="42.871763" lon="0.473292">
        <ele>1976.6</ele>
        <time>2013-03-22T10:37:08Z</time>
      </trkpt>
      <trkpt lat="42.871847" lon="0.473353">
        <ele>1980.0</ele>
        <time>2013-03-22T10:37:28Z</time>
      </trkpt>
      <trkpt lat="42.871932" lon="0.473419">
        <ele>1982.9</ele>
        <time>2013-03-22T10:37:46Z</time>
      </trkpt>
      <trkpt lat="42.872009" lon="0.473477">
        <ele>1987.2</ele>
        <time>2013-03-22T10:38:08Z</time>
      </trkpt>
      <trkpt lat="42.872094" lon="0.473545">
        <ele>1990.1</ele>
        <time>2013-03-22T10:38:31Z</time>
      </trkpt>
      <trkpt lat="42.872170" lon="0.473610">
        <ele>1993.9</ele>
        <time>2013-03-22T10:38:51Z</time>
      </trkpt>
      <trkpt lat="42.872256" lon="0.473686">
        <ele>1996.3</ele>
        <time>2013-03-22T10:39:13Z</time>
      </trkpt>
      <trkpt lat="42.872324" lon="0.473744">
        <ele>2000.2</ele>
        <time>2013-03-22T10:39:33Z</time>
      </trkpt>
      <trkpt lat="42.872395" lon="0.473807">
        <ele>2004.0</ele>
        <time>2013-03-22T10:39:55Z</time>
      </trkpt>
      <trkpt lat="42.872455" lon="0.473907">
        <ele>2008.8</ele>
        <time>2013-03-22T10:40:37Z</time>
      </trkpt>
      <trkpt lat="42.872516" lon="0.473966">
        <ele>2012.7</ele>
        <time>2013-03-22T10:41:03Z</time>
      </trkpt>
      <trkpt lat="42.872593" lon="0.474019">
        <ele>2015.1</ele>
        <time>2013-03-22T10:41:22Z</time>
      </trkpt>
      <trkpt lat="42.872660" lon="0.474079">
        <ele>2016.5</ele>
        <time>2013-03-22T10:43:14Z</time>
      </trkpt>
      <trkpt lat="42.872731" lon="0.474155">
        <ele>2018.4</ele>
        <time>2013-03-22T10:43:32Z</time>
      </trkpt>
      <trkpt lat="42.872800" lon="0.474246">
        <ele>2021.8</ele>
        <time>2013-03-22T10:43:54Z</time>
      </trkpt>
      <trkpt lat="42.872871" lon="0.474314">
        <ele>2023.7</ele>
        <time>2013-03-22T10:44:13Z</time>
      </trkpt>
      <trkpt lat="42.872947" lon="0.474382">
        <ele>2027.1</ele>
        <time>2013-03-22T10:44:33Z</time>
      </trkpt>
      <trkpt lat="42.873032" lon="0.474447">
        <ele>2030.9</ele>
        <time>2013-03-22T10:44:54Z</time>
      </trkpt>
      <trkpt lat="42.873106" lon="0.474545">
        <ele>2033.8</ele>
        <time>2013-03-22T10:45:21Z</time>
      </trkpt>
      <trkpt lat="42.873155" lon="0.474664">
        <ele>2037.7</ele>
        <time>2013-03-22T10:45:44Z</time>
      </trkpt>
      <trkpt lat="42.873208" lon="0.474759">
        <ele>2040.1</ele>
        <time>2013-03-22T10:46:06Z</time>
      </trkpt>
      <trkpt lat="42.873276" lon="0.474802">
        <ele>2043.4</ele>
        <time>2013-03-22T10:46:21Z</time>
      </trkpt>
      <trkpt lat="42.873341" lon="0.474817">
        <ele>2045.8</ele>
        <time>2013-03-22T10:46:51Z</time>
      </trkpt>
      <trkpt lat="42.873417" lon="0.474868">
        <ele>2049.7</ele>
        <time>2013-03-22T10:47:11Z</time>
      </trkpt>
      <trkpt lat="42.873501" lon="0.474916">
        <ele>2053.0</ele>
        <time>2013-03-22T10:47:34Z</time>
      </trkpt>
      <trkpt lat="42.873575" lon="0.474984">
        <ele>2057.4</ele>
        <time>2013-03-22T10:47:57Z</time>
      </trkpt>
      <trkpt lat="42.873679" lon="0.474976">
        <ele>2061.2</ele>
        <time>2013-03-22T10:48:19Z</time>
      </trkpt>
      <trkpt lat="42.873727" lon="0.475087">
        <ele>2064.6</ele>
        <time>2013-03-22T10:48:38Z</time>
      </trkpt>
      <trkpt lat="42.873798" lon="0.475115">
        <ele>2067.9</ele>
        <time>2013-03-22T10:48:55Z</time>
      </trkpt>
      <trkpt lat="42.873865" lon="0.475118">
        <ele>2071.3</ele>
        <time>2013-03-22T10:49:14Z</time>
      </trkpt>
      <trkpt lat="42.873932" lon="0.475190">
        <ele>2074.7</ele>
        <time>2013-03-22T10:49:43Z</time>
      </trkpt>
      <trkpt lat="42.874029" lon="0.475201">
        <ele>2078.0</ele>
        <time>2013-03-22T10:50:05Z</time>
      </trkpt>
      <trkpt lat="42.874114" lon="0.475224">
        <ele>2081.9</ele>
        <time>2013-03-22T10:50:28Z</time>
      </trkpt>
      <trkpt lat="42.874177" lon="0.475363">
        <ele>2087.2</ele>
        <time>2013-03-22T10:50:56Z</time>
      </trkpt>
      <trkpt lat="42.874260" lon="0.475367">
        <ele>2091.5</ele>
        <time>2013-03-22T10:51:32Z</time>
      </trkpt>
      <trkpt lat="42.874362" lon="0.475412">
        <ele>2095.3</ele>
        <time>2013-03-22T10:51:58Z</time>
      </trkpt>
      <trkpt lat="42.874468" lon="0.475436">
        <ele>2098.7</ele>
        <time>2013-03-22T10:52:21Z</time>
      </trkpt>
      <trkpt lat="42.874556" lon="0.475491">
        <ele>2101.6</ele>
        <time>2013-03-22T10:52:38Z</time>
      </trkpt>
      <trkpt lat="42.874626" lon="0.475582">
        <ele>2104.5</ele>
        <time>2013-03-22T10:52:56Z</time>
      </trkpt>
      <trkpt lat="42.874701" lon="0.475639">
        <ele>2107.4</ele>
        <time>2013-03-22T10:53:14Z</time>
      </trkpt>
      <trkpt lat="42.874782" lon="0.475693">
        <ele>2110.7</ele>
        <time>2013-03-22T10:53:30Z</time>
      </trkpt>
      <trkpt lat="42.874859" lon="0.475748">
        <ele>2112.6</ele>
        <time>2013-03-22T10:53:47Z</time>
      </trkpt>
      <trkpt lat="42.874935" lon="0.475836">
        <ele>2114.6</ele>
        <time>2013-03-22T10:54:04Z</time>
      </trkpt>
      <trkpt lat="42.875007" lon="0.475909">
        <ele>2117.0</ele>
        <time>2013-03-22T10:54:21Z</time>
      </trkpt>
      <trkpt lat="42.875105" lon="0.475970">
        <ele>2119.4</ele>
        <time>2013-03-22T10:54:41Z</time>
      </trkpt>
      <trkpt lat="42.875202" lon="0.476036">
        <ele>2122.2</ele>
        <time>2013-03-22T10:54:59Z</time>
      </trkpt>
      <trkpt lat="42.875295" lon="0.476077">
        <ele>2124.2</ele>
        <time>2013-03-22T10:55:17Z</time>
      </trkpt>
      <trkpt lat="42.875391" lon="0.476111">
        <ele>2127.1</ele>
        <time>2013-03-22T10:55:41Z</time>
      </trkpt>
      <trkpt lat="42.875491" lon="0.476169">
        <ele>2128.0</ele>
        <time>2013-03-22T10:55:58Z</time>
      </trkpt>
      <trkpt lat="42.875571" lon="0.476225">
        <ele>2130.4</ele>
        <time>2013-03-22T10:56:22Z</time>
      </trkpt>
      <trkpt lat="42.875662" lon="0.476279">
        <ele>2131.4</ele>
        <time>2013-03-22T10:56:37Z</time>
      </trkpt>
      <trkpt lat="42.875757" lon="0.476318">
        <ele>2132.3</ele>
        <time>2013-03-22T10:56:50Z</time>
      </trkpt>
      <trkpt lat="42.875855" lon="0.476370">
        <ele>2133.8</ele>
        <time>2013-03-22T10:57:05Z</time>
      </trkpt>
      <trkpt lat="42.875956" lon="0.476412">
        <ele>2134.7</ele>
        <time>2013-03-22T10:57:20Z</time>
      </trkpt>
      <trkpt lat="42.876052" lon="0.476451">
        <ele>2135.7</ele>
        <time>2013-03-22T10:57:33Z</time>
      </trkpt>
      <trkpt lat="42.876150" lon="0.476509">
        <ele>2136.2</ele>
        <time>2013-03-22T10:57:58Z</time>
      </trkpt>
      <trkpt lat="42.876248" lon="0.476549">
        <ele>2139.1</ele>
        <time>2013-03-22T10:58:08Z</time>
      </trkpt>
      <trkpt lat="42.876345" lon="0.476567">
        <ele>2139.6</ele>
        <time>2013-03-22T10:58:19Z</time>
      </trkpt>
      <trkpt lat="42.876448" lon="0.476586">
        <ele>2141.0</ele>
        <time>2013-03-22T10:58:31Z</time>
      </trkpt>
      <trkpt lat="42.876561" lon="0.476603">
        <ele>2142.4</ele>
        <time>2013-03-22T10:58:44Z</time>
      </trkpt>
      <trkpt lat="42.876683" lon="0.476611">
        <ele>2145.8</ele>
        <time>2013-03-22T10:59:00Z</time>
      </trkpt>
      <trkpt lat="42.876780" lon="0.476634">
        <ele>2148.7</ele>
        <time>2013-03-22T10:59:15Z</time>
      </trkpt>
      <trkpt lat="42.876898" lon="0.476659">
        <ele>2151.6</ele>
        <time>2013-03-22T10:59:31Z</time>
      </trkpt>
      <trkpt lat="42.876999" lon="0.476694">
        <ele>2155.4</ele>
        <time>2013-03-22T10:59:47Z</time>
      </trkpt>
      <trkpt lat="42.877087" lon="0.476748">
        <ele>2159.3</ele>
        <time>2013-03-22T11:00:02Z</time>
      </trkpt>
      <trkpt lat="42.877095" lon="0.476767">
        <ele>2154.0</ele>
        <time>2013-03-22T11:01:14Z</time>
        <name>Mont-Ne</name>
      </trkpt>
    </trkseg>
  </trk>
</gpx>

